Tweed New Haven Airport New Haven US
ICAO: KHVN
IATA: HVN
Category: Medium
Scheduled Services: Yes

Elevation: 12 ft
TransAlt. 18000 ft.

Airport Communications:
NEW YORK APP/DEP:124.075
ATIS:133.65
CTAF:124.8
GND:121.7
BRIDGEPORT RDO:109.8
NEW HAVEN TWR:124.8
UNICOM:122.95

KHVN Zoom In..

If you have problems with the map follow the link
https://www.worldairports.se/pages/airport.php?
ICAO=KHVN

Runways:

(A) RW 02 length 5600 ft width 150 ft
ILS 109.10 / hdg 16

(B) RW 14 length 3626 ft width 100 ft
---- / hdg 144

(C) RW 20 length 5600 ft width 150 ft
---- / hdg 196

(D) RW 32 length 3626 ft width 100 ft
---- / hdg 324

Location; KHVN
Day. 21 / Time. 04.53 Zulu
* Altimeter: 29.60
* Temperature: 11° c. 51.8°f.
* Wind from: 310° Speed 05 kn.
Dewpoint: 07° c.
Visibility: 10 Statute Miles.
Clouds: Scattered 4900 ft.
Clouds: Broken 6000 ft.
Clouds: Overcast 7500 ft.

KHVN 210453Z AUTO 31005KT 10SM SCT049 BKN060 OVC075 11/07 A2960 RMK AO2 SLP023 T01110072 401780072


Wind From 310°
Speed 05 kn.

 
 
jpsmedia.com for Web Design worldairports.se 2018   terms of use